sensor_id;sensor_type;location;lat;lon;timestamp;pressure;altitude;pressure_sealevel;temperature;humidity
3142;BME280;1581;51.568;6.998;2023-09-30T00:01:30;101795.53;;;15.13;100.00
3142;BME280;1581;51.568;6.998;2023-09-30T00:03:58;101793.66;;;15.14;100.00
3142;BME280;1581;51.568;6.998;2023-09-30T00:06:27;101786.81;;;15.11;100.00
3142;BME280;1581;51.568;6.998;2023-09-30T00:08:54;101798.94;;;15.07;100.00
3142;BME280;1581;51.568;6.998;2023-09-30T00:11:22;101802.41;;;15.01;100.00
3142;BME280;1581;51.568;6.998;2023-09-30T00:13:51;101802.63;;;15.00;100.00
3142;BME280;1581;51.568;6.998;2023-09-30T00:16:19;101807.78;;;15.01;100.00
3142;BME280;1581;51.568;6.998;2023-09-30T00:18:46;101818.28;;;14.96;100.00
3142;BME280;1581;51.568;6.998;2023-09-30T00:21:14;101818.22;;;14.90;100.00
3142;BME280;1581;51.568;6.998;2023-09-30T00:23:42;101817.44;;;14.96;100.00
3142;BME280;1581;51.568;6.998;2023-09-30T00:26:09;101800.69;;;14.94;100.00
3142;BME280;1581;51.568;6.998;2023-09-30T00:28:37;101797.56;;;14.90;100.00
3142;BME280;1581;51.568;6.998;2023-09-30T00:31:08;101801.47;;;14.88;100.00
3142;BME280;1581;51.568;6.998;2023-09-30T00:33:38;101792.19;;;14.90;100.00
3142;BME280;1581;51.568;6.998;2023-09-30T00:36:09;101780.63;;;14.90;100.00
3142;BME280;1581;51.568;6.998;2023-09-30T00:38:38;101796.75;;;14.90;100.00
3142;BME280;1581;51.568;6.998;2023-09-30T00:41:06;101809.31;;;14.89;100.00
3142;BME280;1581;51.568;6.998;2023-09-30T00:43:34;101807.47;;;14.90;100.00
3142;BME280;1581;51.568;6.998;2023-09-30T00:46:13;101807.47;;;14.90;100.00
3142;BME280;1581;51.568;6.998;2023-09-30T00:48:45;101792.38;;;14.89;100.00
3142;BME280;1581;51.568;6.998;2023-09-30T00:51:14;101790.34;;;14.91;100.00
3142;BME280;1581;51.568;6.998;2023-09-30T00:53:42;101794.88;;;14.90;100.00
3142;BME280;1581;51.568;6.998;2023-09-30T00:56:10;101805.81;;;14.89;100.00
3142;BME280;1581;51.568;6.998;2023-09-30T00:58:38;101810.81;;;14.92;100.00
3142;BME280;1581;51.568;6.998;2023-09-30T01:01:08;101813.78;;;14.82;100.00
3142;BME280;1581;51.568;6.998;2023-09-30T01:03:37;101817.28;;;14.83;100.00
3142;BME280;1581;51.568;6.998;2023-09-30T01:06:05;101818.56;;;14.87;100.00
3142;BME280;1581;51.568;6.998;2023-09-30T01:08:32;101814.50;;;14.91;100.00
3142;BME280;1581;51.568;6.998;2023-09-30T01:11:01;101807.19;;;14.85;100.00
3142;BME280;1581;51.568;6.998;2023-09-30T01:13:32;101813.34;;;14.79;100.00
3142;BME280;1581;51.568;6.998;2023-09-30T01:16:04;101805.16;;;14.87;100.00
3142;BME280;1581;51.568;6.998;2023-09-30T01:18:33;101799.16;;;14.85;100.00
3142;BME280;1581;51.568;6.998;2023-09-30T01:21:04;101792.38;;;14.89;100.00
3142;BME280;1581;51.568;6.998;2023-09-30T01:23:34;101793.84;;;14.91;100.00
3142;BME280;1581;51.568;6.998;2023-09-30T01:26:03;101808.28;;;14.90;100.00
3142;BME280;1581;51.568;6.998;2023-09-30T01:28:31;101814.44;;;14.84;100.00
3142;BME280;1581;51.568;6.998;2023-09-30T01:30:58;101816.25;;;14.84;100.00
3142;BME280;1581;51.568;6.998;2023-09-30T01:33:26;101811.91;;;14.83;100.00
3142;BME280;1581;51.568;6.998;2023-09-30T01:35:54;101824.06;;;14.79;100.00
3142;BME280;1581;51.568;6.998;2023-09-30T01:38:22;101834.81;;;14.79;100.00
3142;BME280;1581;51.568;6.998;2023-09-30T01:40:51;101832.50;;;14.76;100.00
3142;BME280;1581;51.568;6.998;2023-09-30T01:43:20;101839.19;;;14.65;100.00
3142;BME280;1581;51.568;6.998;2023-09-30T01:45:47;101839.28;;;14.72;100.00
3142;BME280;1581;51.568;6.998;2023-09-30T01:48:15;101821.22;;;14.66;100.00
3142;BME280;1581;51.568;6.998;2023-09-30T01:50:42;101815.94;;;14.72;100.00
3142;BME280;1581;51.568;6.998;2023-09-30T01:53:10;101823.06;;;14.80;100.00
3142;BME280;1581;51.568;6.998;2023-09-30T01:55:38;101835.38;;;14.74;100.00
3142;BME280;1581;51.568;6.998;2023-09-30T01:58:07;101833.50;;;14.75;100.00
3142;BME280;1581;51.568;6.998;2023-09-30T02:00:37;101832.03;;;14.72;100.00
3142;BME280;1581;51.568;6.998;2023-09-30T02:03:04;101834.41;;;14.61;100.00
3142;BME280;1581;51.568;6.998;2023-09-30T02:05:33;101840.22;;;14.64;100.00
3142;BME280;1581;51.568;6.998;2023-09-30T02:08:00;101845.13;;;14.61;100.00
3142;BME280;1581;51.568;6.998;2023-09-30T02:10:32;101847.16;;;14.59;100.00
3142;BME280;1581;51.568;6.998;2023-09-30T02:13:00;101855.56;;;14.56;100.00
3142;BME280;1581;51.568;6.998;2023-09-30T02:15:29;101855.78;;;14.55;100.00
3142;BME280;1581;51.568;6.998;2023-09-30T02:17:56;101852.88;;;14.56;100.00
3142;BME280;1581;51.568;6.998;2023-09-30T02:20:26;101841.50;;;14.54;100.00
3142;BME280;1581;51.568;6.998;2023-09-30T02:22:56;101843.72;;;14.51;100.00
3142;BME280;1581;51.568;6.998;2023-09-30T02:25:25;101845.03;;;14.55;100.00
3142;BME280;1581;51.568;6.998;2023-09-30T02:27:54;101833.31;;;14.41;100.00
3142;BME280;1581;51.568;6.998;2023-09-30T02:30:23;101830.88;;;14.46;100.00
3142;BME280;1581;51.568;6.998;2023-09-30T02:32:52;101822.03;;;14.46;100.00
3142;BME280;1581;51.568;6.998;2023-09-30T02:35:19;101823.59;;;14.40;100.00
3142;BME280;1581;51.568;6.998;2023-09-30T02:37:47;101824.63;;;14.39;100.00
3142;BME280;1581;51.568;6.998;2023-09-30T02:40:15;101827.22;;;14.33;100.00
3142;BME280;1581;51.568;6.998;2023-09-30T02:42:43;101815.47;;;14.34;100.00
3142;BME280;1581;51.568;6.998;2023-09-30T02:45:12;101814.91;;;14.38;100.00
3142;BME280;1581;51.568;6.998;2023-09-30T02:47:40;101820.38;;;14.30;100.00
3142;BME280;1581;51.568;6.998;2023-09-30T02:50:10;101833.94;;;14.29;100.00
3142;BME280;1581;51.568;6.998;2023-09-30T02:52:38;101830.34;;;14.22;100.00
3142;BME280;1581;51.568;6.998;2023-09-30T02:55:08;101842.09;;;14.21;100.00
3142;BME280;1581;51.568;6.998;2023-09-30T02:57:36;101850.34;;;14.19;100.00
3142;BME280;1581;51.568;6.998;2023-09-30T03:00:04;101854.22;;;14.17;100.00
3142;BME280;1581;51.568;6.998;2023-09-30T03:02:40;101848.28;;;14.07;100.00
3142;BME280;1581;51.568;6.998;2023-09-30T03:05:09;101847.38;;;14.14;100.00
3142;BME280;1581;51.568;6.998;2023-09-30T03:07:37;101851.91;;;14.14;100.00
3142;BME280;1581;51.568;6.998;2023-09-30T03:10:08;101844.06;;;14.12;100.00
3142;BME280;1581;51.568;6.998;2023-09-30T03:12:36;101838.00;;;14.10;100.00
3142;BME280;1581;51.568;6.998;2023-09-30T03:15:04;101836.50;;;14.08;100.00
3142;BME280;1581;51.568;6.998;2023-09-30T03:17:32;101835.22;;;14.04;100.00
3142;BME280;1581;51.568;6.998;2023-09-30T03:20:02;101842.72;;;14.08;100.00
3142;BME280;1581;51.568;6.998;2023-09-30T03:22:36;101838.94;;;14.03;100.00
3142;BME280;1581;51.568;6.998;2023-09-30T03:25:05;101839.84;;;14.10;100.00
3142;BME280;1581;51.568;6.998;2023-09-30T03:27:35;101837.34;;;14.08;100.00
3142;BME280;1581;51.568;6.998;2023-09-30T03:30:04;101839.03;;;14.09;100.00
3142;BME280;1581;51.568;6.998;2023-09-30T03:32:31;101837.34;;;14.08;100.00
3142;BME280;1581;51.568;6.998;2023-09-30T03:34:59;101832.09;;;14.00;100.00
3142;BME280;1581;51.568;6.998;2023-09-30T03:37:27;101829.41;;;14.00;100.00
3142;BME280;1581;51.568;6.998;2023-09-30T03:39:56;101828.88;;;14.19;100.00
3142;BME280;1581;51.568;6.998;2023-09-30T03:42:25;101837.28;;;14.31;100.00
3142;BME280;1581;51.568;6.998;2023-09-30T03:44:56;101830.72;;;14.33;100.00
3142;BME280;1581;51.568;6.998;2023-09-30T03:47:23;101827.78;;;14.28;100.00
3142;BME280;1581;51.568;6.998;2023-09-30T03:49:51;101820.28;;;14.24;100.00
3142;BME280;1581;51.568;6.998;2023-09-30T03:52:20;101827.03;;;14.20;100.00
3142;BME280;1581;51.568;6.998;2023-09-30T03:54:49;101828.59;;;14.14;100.00
3142;BME280;1581;51.568;6.998;2023-09-30T03:57:18;101833.13;;;14.14;100.00
3142;BME280;1581;51.568;6.998;2023-09-30T03:59:45;101838.69;;;14.12;100.00
3142;BME280;1581;51.568;6.998;2023-09-30T04:02:13;101832.28;;;14.13;100.00
3142;BME280;1581;51.568;6.998;2023-09-30T04:04:41;101827.38;;;14.02;100.00
3142;BME280;1581;51.568;6.998;2023-09-30T04:07:09;101835.22;;;14.04;100.00
3142;BME280;1581;51.568;6.998;2023-09-30T04:09:36;101831.53;;;14.05;100.00
3142;BME280;1581;51.568;6.998;2023-09-30T04:12:05;101835.13;;;13.97;100.00
3142;BME280;1581;51.568;6.998;2023-09-30T04:14:34;101834.13;;;13.98;100.00
3142;BME280;1581;51.568;6.998;2023-09-30T04:17:01;101823.50;;;13.90;100.00
3142;BME280;1581;51.568;6.998;2023-09-30T04:19:30;101826.72;;;13.86;100.00
3142;BME280;1581;51.568;6.998;2023-09-30T04:21:58;101825.63;;;13.95;100.00
3142;BME280;1581;51.568;6.998;2023-09-30T04:24:26;101816.56;;;13.96;100.00
3142;BME280;1581;51.568;6.998;2023-09-30T04:26:55;101819.97;;;13.90;100.00
3142;BME280;1581;51.568;6.998;2023-09-30T04:29:28;101820.97;;;13.89;100.00
3142;BME280;1581;51.568;6.998;2023-09-30T04:31:58;101833.56;;;13.88;100.00
3142;BME280;1581;51.568;6.998;2023-09-30T04:34:25;101836.03;;;13.90;100.00
3142;BME280;1581;51.568;6.998;2023-09-30T04:36:54;101838.72;;;13.90;100.00
3142;BME280;1581;51.568;6.998;2023-09-30T04:39:21;101840.59;;;13.89;100.00
3142;BME280;1581;51.568;6.998;2023-09-30T04:41:50;101850.91;;;13.92;100.00
3142;BME280;1581;51.568;6.998;2023-09-30T04:44:17;101845.28;;;13.87;100.00
3142;BME280;1581;51.568;6.998;2023-09-30T04:46:45;101843.97;;;13.83;100.00
3142;BME280;1581;51.568;6.998;2023-09-30T04:49:15;101845.84;;;13.83;100.00
3142;BME280;1581;51.568;6.998;2023-09-30T04:51:43;101855.72;;;13.82;100.00
3142;BME280;1581;51.568;6.998;2023-09-30T04:54:11;101856.56;;;13.83;100.00
3142;BME280;1581;51.568;6.998;2023-09-30T04:56:38;101863.94;;;13.81;100.00
3142;BME280;1581;51.568;6.998;2023-09-30T04:59:06;101857.09;;;13.78;100.00
3142;BME280;1581;51.568;6.998;2023-09-30T05:01:33;101867.34;;;13.75;100.00
3142;BME280;1581;51.568;6.998;2023-09-30T05:04:01;101875.63;;;13.66;100.00
3142;BME280;1581;51.568;6.998;2023-09-30T05:06:32;101858.91;;;13.64;100.00
3142;BME280;1581;51.568;6.998;2023-09-30T05:09:01;101859.91;;;13.63;100.00
3142;BME280;1581;51.568;6.998;2023-09-30T05:11:31;101855.31;;;13.71;100.00
3142;BME280;1581;51.568;6.998;2023-09-30T05:13:59;101872.81;;;13.81;100.00
3142;BME280;1581;51.568;6.998;2023-09-30T05:16:26;101877.34;;;13.81;100.00
3142;BME280;1581;51.568;6.998;2023-09-30T05:18:55;101878.53;;;13.78;100.00
3142;BME280;1581;51.568;6.998;2023-09-30T05:21:23;101865.03;;;13.72;100.00
3142;BME280;1581;51.568;6.998;2023-09-30T05:23:52;101875.28;;;13.69;100.00
3142;BME280;1581;51.568;6.998;2023-09-30T05:26:20;101866.69;;;13.73;100.00
3142;BME280;1581;51.568;6.998;2023-09-30T05:28:47;101875.41;;;13.75;100.00
3142;BME280;1581;51.568;6.998;2023-09-30T05:31:15;101879.78;;;13.68;100.00
3142;BME280;1581;51.568;6.998;2023-09-30T05:33:45;101875.28;;;13.69;100.00
3142;BME280;1581;51.568;6.998;2023-09-30T05:36:15;101877.59;;;13.72;100.00
3142;BME280;1581;51.568;6.998;2023-09-30T05:38:43;101887.13;;;13.74;100.00
3142;BME280;1581;51.568;6.998;2023-09-30T05:41:13;101883.03;;;13.78;100.00
3142;BME280;1581;51.568;6.998;2023-09-30T05:43:41;101882.88;;;13.79;100.00
3142;BME280;1581;51.568;6.998;2023-09-30T05:46:10;101879.56;;;13.77;100.00
3142;BME280;1581;51.568;6.998;2023-09-30T05:48:37;101874.97;;;13.86;100.00
3142;BME280;1581;51.568;6.998;2023-09-30T05:51:06;101877.72;;;13.92;100.00
3142;BME280;1581;51.568;6.998;2023-09-30T05:53:34;101879.69;;;13.98;100.00
3142;BME280;1581;51.568;6.998;2023-09-30T05:56:02;101877.81;;;13.99;100.00
3142;BME280;1581;51.568;6.998;2023-09-30T05:58:31;101878.31;;;14.02;100.00
3142;BME280;1581;51.568;6.998;2023-09-30T06:00:59;101877.56;;;14.08;100.00
3142;BME280;1581;51.568;6.998;2023-09-30T06:03:28;101864.75;;;14.18;100.00
3142;BME280;1581;51.568;6.998;2023-09-30T06:05:56;101875.28;;;14.34;100.00
3142;BME280;1581;51.568;6.998;2023-09-30T06:08:23;101871.41;;;14.37;100.00
3142;BME280;1581;51.568;6.998;2023-09-30T06:10:51;101884.06;;;14.43;100.00
3142;BME280;1581;51.568;6.998;2023-09-30T06:13:20;101886.94;;;14.41;100.00
3142;BME280;1581;51.568;6.998;2023-09-30T06:15:49;101884.44;;;14.40;100.00
3142;BME280;1581;51.568;6.998;2023-09-30T06:18:18;101887.97;;;14.40;100.00
3142;BME280;1581;51.568;6.998;2023-09-30T06:20:45;101884.72;;;14.45;100.00
3142;BME280;1581;51.568;6.998;2023-09-30T06:23:13;101891.00;;;14.52;100.00
3142;BME280;1581;51.568;6.998;2023-09-30T06:25:42;101883.59;;;14.54;100.00
3142;BME280;1581;51.568;6.998;2023-09-30T06:28:10;101892.09;;;14.57;100.00
3142;BME280;1581;51.568;6.998;2023-09-30T06:30:41;101884.59;;;14.67;100.00
3142;BME280;1581;51.568;6.998;2023-09-30T06:33:13;101891.06;;;14.72;100.00
3142;BME280;1581;51.568;6.998;2023-09-30T06:35:41;101896.88;;;14.76;100.00
3142;BME280;1581;51.568;6.998;2023-09-30T06:38:17;101893.72;;;14.87;100.00
3142;BME280;1581;51.568;6.998;2023-09-30T06:40:45;101901.88;;;14.93;100.00
3142;BME280;1581;51.568;6.998;2023-09-30T06:43:14;101903.69;;;14.93;100.00
3142;BME280;1581;51.568;6.998;2023-09-30T06:45:43;101896.94;;;14.97;100.00
3142;BME280;1581;51.568;6.998;2023-09-30T06:48:14;101900.72;;;15.02;100.00
3142;BME280;1581;51.568;6.998;2023-09-30T06:50:44;101907.84;;;15.10;100.00
3142;BME280;1581;51.568;6.998;2023-09-30T06:53:14;101906.25;;;15.15;100.00
3142;BME280;1581;51.568;6.998;2023-09-30T06:55:42;101913.34;;;15.23;100.00
3142;BME280;1581;51.568;6.998;2023-09-30T06:58:14;101904.47;;;15.22;100.00
3142;BME280;1581;51.568;6.998;2023-09-30T07:00:50;101907.63;;;15.26;100.00
3142;BME280;1581;51.568;6.998;2023-09-30T07:03:21;101910.00;;;15.35;100.00
3142;BME280;1581;51.568;6.998;2023-09-30T07:05:49;101915.47;;;15.42;100.00
3142;BME280;1581;51.568;6.998;2023-09-30T07:08:18;101913.84;;;15.47;100.00
3142;BME280;1581;51.568;6.998;2023-09-30T07:10:47;101915.97;;;15.52;100.00
3142;BME280;1581;51.568;6.998;2023-09-30T07:13:16;101928.84;;;15.62;100.00
3142;BME280;1581;51.568;6.998;2023-09-30T07:15:47;101929.56;;;15.71;100.00
3142;BME280;1581;51.568;6.998;2023-09-30T07:18:14;101937.84;;;15.69;100.00
3142;BME280;1581;51.568;6.998;2023-09-30T07:20:43;101939.94;;;15.74;100.00
3142;BME280;1581;51.568;6.998;2023-09-30T07:23:11;101942.88;;;15.79;100.00
3142;BME280;1581;51.568;6.998;2023-09-30T07:25:39;101956.38;;;15.85;100.00
3142;BME280;1581;51.568;6.998;2023-09-30T07:28:07;101954.38;;;15.94;100.00
3142;BME280;1581;51.568;6.998;2023-09-30T07:30:38;101965.53;;;15.91;100.00
3142;BME280;1581;51.568;6.998;2023-09-30T07:33:06;101976.34;;;15.97;100.00
3142;BME280;1581;51.568;6.998;2023-09-30T07:35:34;101987.97;;;16.04;100.00
3142;BME280;1581;51.568;6.998;2023-09-30T07:38:04;101978.25;;;16.03;100.00
3142;BME280;1581;51.568;6.998;2023-09-30T07:40:31;101974.78;;;16.09;100.00
3142;BME280;1581;51.568;6.998;2023-09-30T07:42:59;101975.66;;;16.16;100.00
3142;BME280;1581;51.568;6.998;2023-09-30T07:45:27;101983.38;;;16.19;100.00
3142;BME280;1581;51.568;6.998;2023-09-30T07:47:55;101995.19;;;16.25;100.00
3142;BME280;1581;51.568;6.998;2023-09-30T07:50:24;101993.53;;;16.24;100.00
3142;BME280;1581;51.568;6.998;2023-09-30T07:52:52;101995.28;;;16.31;100.00
3142;BME280;1581;51.568;6.998;2023-09-30T07:55:21;102000.50;;;16.39;100.00
3142;BME280;1581;51.568;6.998;2023-09-30T07:57:48;102004.66;;;16.41;100.00
3142;BME280;1581;51.568;6.998;2023-09-30T08:00:16;102002.41;;;16.45;100.00
3142;BME280;1581;51.568;6.998;2023-09-30T08:02:47;102004.06;;;16.46;100.00
3142;BME280;1581;51.568;6.998;2023-09-30T08:05:14;102003.69;;;16.49;100.00
3142;BME280;1581;51.568;6.998;2023-09-30T08:07:42;102002.06;;;16.54;100.00
3142;BME280;1581;51.568;6.998;2023-09-30T08:10:10;101999.44;;;16.61;100.00
3142;BME280;1581;51.568;6.998;2023-09-30T08:12:41;102006.13;;;16.71;100.00
3142;BME280;1581;51.568;6.998;2023-09-30T08:15:12;102001.59;;;16.78;100.00
3142;BME280;1581;51.568;6.998;2023-09-30T08:17:40;102014.28;;;16.84;100.00
3142;BME280;1581;51.568;6.998;2023-09-30T08:20:09;102011.38;;;16.86;100.00
3142;BME280;1581;51.568;6.998;2023-09-30T08:22:37;102020.09;;;16.88;100.00
3142;BME280;1581;51.568;6.998;2023-09-30T08:25:08;102030.06;;;16.94;100.00
3142;BME280;1581;51.568;6.998;2023-09-30T08:27:40;102026.56;;;16.93;100.00
3142;BME280;1581;51.568;6.998;2023-09-30T08:30:09;102019.56;;;17.05;100.00
3142;BME280;1581;51.568;6.998;2023-09-30T08:32:37;102017.94;;;17.11;100.00
3142;BME280;1581;51.568;6.998;2023-09-30T08:35:07;102036.19;;;17.15;100.00
3142;BME280;1581;51.568;6.998;2023-09-30T08:37:35;102035.38;;;17.21;100.00
3142;BME280;1581;51.568;6.998;2023-09-30T08:40:06;102027.56;;;17.26;100.00
3142;BME280;1581;51.568;6.998;2023-09-30T08:42:41;102016.13;;;17.24;100.00
3142;BME280;1581;51.568;6.998;2023-09-30T08:45:12;102022.16;;;17.26;100.00
3142;BME280;1581;51.568;6.998;2023-09-30T08:47:44;102011.88;;;17.36;100.00
3142;BME280;1581;51.568;6.998;2023-09-30T08:50:13;102012.91;;;17.48;100.00
3142;BME280;1581;51.568;6.998;2023-09-30T08:52:47;102013.38;;;17.51;100.00
3142;BME280;1581;51.568;6.998;2023-09-30T08:55:20;102007.78;;;17.59;100.00
3142;BME280;1581;51.568;6.998;2023-09-30T08:57:52;102008.88;;;17.71;100.00
3142;BME280;1581;51.568;6.998;2023-09-30T09:00:21;102006.38;;;17.76;100.00
3142;BME280;1581;51.568;6.998;2023-09-30T09:02:50;102013.25;;;17.92;100.00
3142;BME280;1581;51.568;6.998;2023-09-30T09:05:18;101996.44;;;18.03;100.00
3142;BME280;1581;51.568;6.998;2023-09-30T09:07:45;101987.97;;;18.06;100.00
3142;BME280;1581;51.568;6.998;2023-09-30T09:10:17;101982.13;;;18.09;100.00
3142;BME280;1581;51.568;6.998;2023-09-30T09:12:58;101993.13;;;18.07;100.00
3142;BME280;1581;51.568;6.998;2023-09-30T09:15:26;101984.63;;;18.10;100.00
3142;BME280;1581;51.568;6.998;2023-09-30T09:17:55;101988.56;;;18.08;100.00
3142;BME280;1581;51.568;6.998;2023-09-30T09:20:25;101984.81;;;18.15;100.00
3142;BME280;1581;51.568;6.998;2023-09-30T09:22:54;101987.56;;;18.28;100.00
3142;BME280;1581;51.568;6.998;2023-09-30T09:25:22;101984.00;;;18.27;100.00
3142;BME280;1581;51.568;6.998;2023-09-30T09:27:51;101998.34;;;18.28;100.00
3142;BME280;1581;51.568;6.998;2023-09-30T09:30:23;101997.09;;;18.30;100.00
3142;BME280;1581;51.568;6.998;2023-09-30T09:32:58;102001.06;;;18.41;100.00
3142;BME280;1581;51.568;6.998;2023-09-30T09:35:26;101999.97;;;18.55;100.00
3142;BME280;1581;51.568;6.998;2023-09-30T09:38:06;101996.66;;;18.53;100.00
3142;BME280;1581;51.568;6.998;2023-09-30T09:40:39;101988.78;;;18.58;100.00
3142;BME280;1581;51.568;6.998;2023-09-30T09:43:07;101991.25;;;18.66;100.00
3142;BME280;1581;51.568;6.998;2023-09-30T09:45:37;101989.16;;;18.74;100.00
3142;BME280;1581;51.568;6.998;2023-09-30T09:48:06;101991.22;;;18.79;100.00
3142;BME280;1581;51.568;6.998;2023-09-30T09:50:35;101989.94;;;18.88;100.00
3142;BME280;1581;51.568;6.998;2023-09-30T09:53:05;101984.69;;;19.05;100.00
3142;BME280;1581;51.568;6.998;2023-09-30T09:55:33;101990.09;;;19.12;100.00
3142;BME280;1581;51.568;6.998;2023-09-30T09:58:03;101997.16;;;19.19;100.00
3142;BME280;1581;51.568;6.998;2023-09-30T10:00:30;101992.13;;;19.29;100.00
3142;BME280;1581;51.568;6.998;2023-09-30T10:03:03;101990.69;;;19.58;100.00
3142;BME280;1581;51.568;6.998;2023-09-30T10:05:31;101996.22;;;19.76;100.00
3142;BME280;1581;51.568;6.998;2023-09-30T10:08:04;102005.06;;;19.89;100.00
3142;BME280;1581;51.568;6.998;2023-09-30T10:10:36;102013.59;;;19.92;100.00
3142;BME280;1581;51.568;6.998;2023-09-30T10:13:05;102018.53;;;20.02;100.00
3142;BME280;1581;51.568;6.998;2023-09-30T10:15:39;102035.94;;;20.12;100.00
3142;BME280;1581;51.568;6.998;2023-09-30T10:18:10;102030.69;;;20.17;100.00
3142;BME280;1581;51.568;6.998;2023-09-30T10:20:39;102021.56;;;20.12;100.00
3142;BME280;1581;51.568;6.998;2023-09-30T10:23:24;102019.72;;;20.12;100.00
3142;BME280;1581;51.568;6.998;2023-09-30T10:26:13;102016.78;;;20.14;100.00
3142;BME280;1581;51.568;6.998;2023-09-30T10:28:44;102019.09;;;20.35;100.00
3142;BME280;1581;51.568;6.998;2023-09-30T10:31:16;102018.81;;;20.43;100.00
3142;BME280;1581;51.568;6.998;2023-09-30T10:34:21;102034.63;;;20.46;100.00
3142;BME280;1581;51.568;6.998;2023-09-30T10:36:55;102038.34;;;20.27;100.00
3142;BME280;1581;51.568;6.998;2023-09-30T10:39:54;102034.91;;;20.13;99.85
3142;BME280;1581;51.568;6.998;2023-09-30T10:42:44;102040.41;;;19.94;98.67
3142;BME280;1581;51.568;6.998;2023-09-30T10:45:45;102031.91;;;19.97;97.75
3142;BME280;1581;51.568;6.998;2023-09-30T10:48:37;102044.69;;;20.14;98.24
3142;BME280;1581;51.568;6.998;2023-09-30T10:51:18;102041.31;;;20.19;99.09
3142;BME280;1581;51.568;6.998;2023-09-30T10:53:49;102028.66;;;20.13;99.95
3142;BME280;1581;51.568;6.998;2023-09-30T10:56:20;102027.44;;;20.09;100.00
3142;BME280;1581;51.568;6.998;2023-09-30T10:58:49;102016.00;;;20.07;100.00
3142;BME280;1581;51.568;6.998;2023-09-30T11:01:19;102013.59;;;20.23;100.00
3142;BME280;1581;51.568;6.998;2023-09-30T11:03:50;102017.88;;;20.06;99.49
3142;BME280;1581;51.568;6.998;2023-09-30T11:06:27;102014.00;;;19.96;98.47
3142;BME280;1581;51.568;6.998;2023-09-30T11:09:01;102019.19;;;19.97;99.51
3142;BME280;1581;51.568;6.998;2023-09-30T11:11:39;102021.09;;;19.90;99.36
3142;BME280;1581;51.568;6.998;2023-09-30T11:14:25;102016.03;;;20.00;100.00
3142;BME280;1581;51.568;6.998;2023-09-30T11:16:57;102003.13;;;20.27;99.94
3142;BME280;1581;51.568;6.998;2023-09-30T11:19:34;102003.63;;;20.17;99.05
3142;BME280;1581;51.568;6.998;2023-09-30T11:22:04;101995.66;;;19.98;100.00
3142;BME280;1581;51.568;6.998;2023-09-30T11:24:35;101999.03;;;19.87;100.00
3142;BME280;1581;51.568;6.998;2023-09-30T11:27:03;102000.28;;;19.91;100.00
3142;BME280;1581;51.568;6.998;2023-09-30T11:29:31;101986.72;;;19.97;100.00
3142;BME280;1581;51.568;6.998;2023-09-30T11:31:59;101983.53;;;20.07;100.00
3142;BME280;1581;51.568;6.998;2023-09-30T11:34:35;101985.56;;;20.11;100.00
3142;BME280;1581;51.568;6.998;2023-09-30T11:37:04;101989.16;;;20.05;100.00
3142;BME280;1581;51.568;6.998;2023-09-30T11:39:32;101992.06;;;20.04;100.00
3142;BME280;1581;51.568;6.998;2023-09-30T11:42:00;101989.38;;;20.04;100.00
3142;BME280;1581;51.568;6.998;2023-09-30T11:44:28;101993.97;;;20.03;100.00
3142;BME280;1581;51.568;6.998;2023-09-30T11:46:58;101998.00;;;20.19;100.00
3142;BME280;1581;51.568;6.998;2023-09-30T11:49:32;101996.88;;;20.26;100.00
3142;BME280;1581;51.568;6.998;2023-09-30T11:52:06;101995.16;;;20.32;99.44
3142;BME280;1581;51.568;6.998;2023-09-30T11:54:38;101992.06;;;20.28;96.50
3142;BME280;1581;51.568;6.998;2023-09-30T11:57:08;101999.28;;;20.41;96.80
3142;BME280;1581;51.568;6.998;2023-09-30T11:59:37;101987.78;;;20.45;98.56
3142;BME280;1581;51.568;6.998;2023-09-30T12:02:07;101997.34;;;20.48;99.14
3142;BME280;1581;51.568;6.998;2023-09-30T12:04:35;101992.91;;;20.53;100.00
3142;BME280;1581;51.568;6.998;2023-09-30T12:07:05;101986.81;;;20.76;99.58
3142;BME280;1581;51.568;6.998;2023-09-30T12:09:36;101987.69;;;20.94;98.99
3142;BME280;1581;51.568;6.998;2023-09-30T12:12:08;101973.09;;;21.13;96.78
3142;BME280;1581;51.568;6.998;2023-09-30T12:14:37;101972.41;;;21.17;94.94
3142;BME280;1581;51.568;6.998;2023-09-30T12:17:05;101966.81;;;21.30;94.01
3142;BME280;1581;51.568;6.998;2023-09-30T12:19:37;101962.72;;;21.39;92.09
3142;BME280;1581;51.568;6.998;2023-09-30T12:22:07;101954.81;;;21.56;91.25
3142;BME280;1581;51.568;6.998;2023-09-30T12:24:36;101947.28;;;21.69;91.68
3142;BME280;1581;51.568;6.998;2023-09-30T12:27:06;101947.50;;;21.67;84.68
3142;BME280;1581;51.568;6.998;2023-09-30T12:29:52;101940.00;;;21.81;86.56
3142;BME280;1581;51.568;6.998;2023-09-30T12:32:19;101950.19;;;21.97;87.16
3142;BME280;1581;51.568;6.998;2023-09-30T12:34:50;101948.53;;;21.96;85.77
3142;BME280;1581;51.568;6.998;2023-09-30T12:37:20;101945.34;;;21.99;86.67
3142;BME280;1581;51.568;6.998;2023-09-30T12:39:48;101942.97;;;22.14;83.90
3142;BME280;1581;51.568;6.998;2023-09-30T12:42:18;101956.66;;;22.07;83.42
3142;BME280;1581;51.568;6.998;2023-09-30T12:44:46;101956.31;;;21.92;83.31
3142;BME280;1581;51.568;6.998;2023-09-30T12:47:29;101961.97;;;21.91;82.54
3142;BME280;1581;51.568;6.998;2023-09-30T12:50:03;101963.28;;;22.00;84.78
3142;BME280;1581;51.568;6.998;2023-09-30T12:52:33;101953.25;;;22.12;86.90
3142;BME280;1581;51.568;6.998;2023-09-30T12:55:01;101950.66;;;22.28;86.90
3142;BME280;1581;51.568;6.998;2023-09-30T12:57:29;101942.31;;;22.41;86.90
3142;BME280;1581;51.568;6.998;2023-09-30T12:59:57;101949.28;;;22.37;88.44
3142;BME280;1581;51.568;6.998;2023-09-30T13:02:27;101951.16;;;22.48;85.55
3142;BME280;1581;51.568;6.998;2023-09-30T13:04:58;101948.78;;;22.52;83.31
3142;BME280;1581;51.568;6.998;2023-09-30T13:07:28;101944.31;;;22.46;81.59
3142;BME280;1581;51.568;6.998;2023-09-30T13:10:00;101943.97;;;22.54;78.84
3142;BME280;1581;51.568;6.998;2023-09-30T13:12:29;101941.25;;;22.65;78.92
3142;BME280;1581;51.568;6.998;2023-09-30T13:15:00;101933.19;;;22.70;77.71
3142;BME280;1581;51.568;6.998;2023-09-30T13:17:29;101928.31;;;22.83;75.99